Time;durP1;ratioP1;P1;durP2;ratioP2;P2;SDS_P1;SDS_P2;PMS_P1;PMS_P2;Temp;Humidity;BMP_temperature;BMP_pressure;BME280_temperature;BME280_humidity;BME280_pressure;Samples;Min_cycle;Max_cycle;Signal;HPM_P1;HPM_P2
2022/08/14 00:03:21;;;;;;;7.30;4.60;;;;;;;21.90;76.19;100375.27;656377;1277;25255;-80
2022/08/14 00:18:31;;;;;;;9.40;4.40;;;;;;;21.80;77.02;100365.40;655548;1277;25373;-79
2022/08/14 00:33:54;;;;;;;12.00;4.10;;;;;;;21.63;77.97;100357.04;656321;1277;22570;-79
2022/08/14 00:49:18;;;;;;;8.10;5.00;;;;;;;21.30;78.58;100345.88;656257;1277;25444;-80
2022/08/14 01:04:23;;;;;;;8.70;5.40;;;;;;;21.01;79.89;100333.87;656408;1277;23137;-80
2022/08/14 01:35:30;;;;;;;5.80;4.80;;;;;;;20.80;81.94;100310.69;656771;1277;24585;-80
2022/08/14 01:50:54;;;;;;;6.60;5.00;;;;;;;20.67;82.94;100316.06;658384;1277;27763;-81
2022/08/14 02:05:58;;;;;;;7.20;5.00;;;;;;;20.55;83.43;100317.16;656463;1277;24388;-80
2022/08/14 02:21:22;;;;;;;6.00;4.80;;;;;;;20.40;84.26;100316.17;656020;1277;22795;-80
2022/08/14 02:36:29;;;;;;;9.50;5.00;;;;;;;20.34;84.54;100314.95;657242;1277;25348;-80
2022/08/14 02:51:53;;;;;;;10.30;4.70;;;;;;;20.29;86.03;100307.32;657519;1277;24474;-80
2022/08/14 03:06:59;;;;;;;7.40;4.80;;;;;;;20.25;86.91;100292.88;658005;1277;23535;-79
2022/08/14 03:22:10;;;;;;;9.10;5.00;;;;;;;20.12;88.20;100291.38;656975;1277;25223;-80
2022/08/14 03:37:20;;;;;;;6.70;5.00;;;;;;;19.98;88.32;100279.52;657849;1277;22681;-80
2022/08/14 03:52:44;;;;;;;7.90;5.60;;;;;;;19.86;88.91;100273.45;657883;1277;22715;-79
2022/08/14 04:07:57;;;;;;;8.70;5.50;;;;;;;19.82;89.46;100274.23;656173;1277;22559;-80
2022/08/14 04:23:22;;;;;;;8.20;4.90;;;;;;;19.98;89.88;100274.77;656351;1277;24355;-80
2022/08/14 04:54:00;;;;;;;11.40;6.40;;;;;;;20.52;90.95;100268.79;658300;1277;23343;-80
2022/08/14 05:09:04;;;;;;;9.60;6.30;;;;;;;21.03;90.64;100263.64;660390;1277;22688;-80
2022/08/14 05:24:11;;;;;;;13.50;10.30;;;;;;;21.23;90.37;100261.54;659024;1277;22691;-81
2022/08/14 05:39:21;;;;;;;10.00;5.10;;;;;;;21.58;90.64;100253.62;659734;1277;22682;-81
2022/08/14 05:54:25;;;;;;;8.90;5.10;;;;;;;22.43;89.27;100240.67;657475;1277;23631;-81
2022/08/14 06:09:32;;;;;;;6.10;4.60;;;;;;;23.20;88.17;100235.52;657914;1277;25301;-81
2022/08/14 06:24:42;;;;;;;12.90;4.50;;;;;;;23.98;86.04;100236.98;659446;1277;25366;-81
2022/08/14 06:39:46;;;;;;;5.80;4.60;;;;;;;24.93;83.60;100234.21;661034;1276;25284;-80
2022/08/14 06:54:51;;;;;;;7.10;4.60;;;;;;;25.77;81.81;100229.31;658962;1277;24269;-81
2022/08/14 07:09:54;;;;;;;4.70;4.10;;;;;;;26.37;80.44;100216.86;659276;1277;23572;-82
2022/08/14 07:24:57;;;;;;;5.90;3.60;;;;;;;27.20;78.83;100216.40;661289;1277;22596;-81
2022/08/14 07:40:04;;;;;;;6.10;3.90;;;;;;;27.92;75.89;100212.43;661087;1276;24333;-80
2022/08/14 07:55:13;;;;;;;7.50;5.00;;;;;;;28.83;70.14;100205.42;657640;1277;25404;-81
2022/08/14 08:10:31;;;;;;;7.10;5.60;;;;;;;29.46;67.36;100193.02;657270;1277;22680;-83
2022/08/14 08:25:54;;;;;;;11.40;6.70;;;;;;;30.32;65.79;100186.20;656707;1277;22538;-81
2022/08/14 08:40:59;;;;;;;9.30;6.70;;;;;;;30.43;66.96;100167.33;657193;1277;23644;-80
2022/08/14 08:56:03;;;;;;;7.50;6.00;;;;;;;31.81;66.10;100156.48;664821;1277;22601;-81
2022/08/14 09:11:11;;;;;;;7.60;6.10;;;;;;;33.02;62.89;100157.38;657787;1277;22691;-81
2022/08/14 09:26:23;;;;;;;9.70;6.30;;;;;;;32.08;62.22;100145.77;656342;1277;24441;-81
2022/08/14 09:41:45;;;;;;;10.00;7.70;;;;;;;32.28;62.00;100121.53;657141;1277;1420548;-81
2022/08/14 09:57:23;;;;;;;;;;;;;;;33.25;59.33;100106.52;657536;1277;25446;-80
2022/08/14 10:12:43;;;;;;;11.10;6.60;;;;;;;33.29;57.72;100083.84;657285;1277;25381;-81
2022/08/14 10:27:55;;;;;;;;;;;;;;;34.28;56.46;100077.02;657981;1277;22541;-81
2022/08/14 10:42:58;;;;;;;8.60;6.60;;;;;;;34.28;56.43;100076.66;656539;1277;25474;-81
2022/08/14 10:58:03;;;;;;;8.00;5.90;;;;;;;34.75;55.62;100054.85;657765;1277;22555;-80
2022/08/14 11:13:07;;;;;;;10.20;6.50;;;;;;;35.05;54.70;100048.95;656457;1277;22573;-82
2022/08/14 11:28:15;;;;;;;8.00;6.70;;;;;;;34.51;54.84;100042.25;656721;1277;25316;-82
2022/08/14 11:43:24;;;;;;;8.00;7.20;;;;;;;33.99;54.71;100028.98;657933;1277;22598;-82
2022/08/14 11:58:35;;;;;;;9.70;7.50;;;;;;;34.58;54.68;100023.87;657453;1277;24588;-81
2022/08/14 12:13:41;;;;;;;9.50;8.00;;;;;;;34.25;54.96;100013.71;657642;1277;22566;-80
2022/08/14 12:29:14;;;;;;;9.60;7.80;;;;;;;34.92;54.75;99997.83;657841;1277;25433;-81
2022/08/14 12:44:29;;;;;;;12.70;6.90;;;;;;;34.64;53.94;99978.09;658025;1277;30867;-82
2022/08/14 12:59:34;;;;;;;11.10;7.30;;;;;;;35.51;53.52;99950.89;657435;1277;22637;-81
2022/08/14 13:14:49;;;;;;;7.50;6.70;;;;;;;35.40;52.95;99945.75;657845;1277;25172;-81
2022/08/14 13:29:57;;;;;;;10.70;7.70;;;;;;;34.46;54.07;99923.71;657730;1277;23515;-81
2022/08/14 13:45:03;;;;;;;10.90;7.80;;;;;;;35.25;54.46;99893.27;656809;1277;24367;-81
2022/08/14 14:00:13;;;;;;;12.20;7.50;;;;;;;34.82;54.23;99882.67;657200;1277;26401;-81
2022/08/14 14:15:20;;;;;;;9.10;6.60;;;;;;;32.63;63.60;99897.73;656889;1277;24893;-81
2022/08/14 14:30:32;;;;;;;10.40;5.70;;;;;;;31.13;67.92;99884.99;656478;1277;22567;-82
2022/08/14 14:45:56;;;;;;;9.60;7.60;;;;;;;32.70;65.77;99922.86;656445;1277;25419;-83
2022/08/14 15:01:02;;;;;;;7.40;5.10;;;;;;;29.64;74.96;99982.75;656916;1276;23154;-81
2022/08/14 15:16:11;;;;;;;7.40;5.80;;;;;;;27.21;81.59;99936.77;659077;1277;22696;-81
2022/08/14 15:31:15;;;;;;;8.50;5.80;;;;;;;26.17;89.63;99991.55;658698;1277;24489;-82
2022/08/14 15:46:18;;;;;;;11.10;7.70;;;;;;;26.04;91.68;99958.09;657679;1277;22562;-84
2022/08/14 16:01:42;;;;;;;9.50;6.50;;;;;;;26.02;92.12;99964.44;657724;1277;22597;-85
2022/08/14 16:16:57;;;;;;;36.80;18.80;;;;;;;25.88;92.86;99983.41;661234;1277;22638;-88
2022/08/14 16:32:04;;;;;;;19.10;11.60;;;;;;;25.70;94.59;99968.99;657994;1277;22632;-89
2022/08/14 16:47:28;;;;;;;15.80;9.50;;;;;;;25.45;97.99;99938.02;657396;1277;22538;-90
2022/08/14 17:02:41;;;;;;;;;;;;;;;25.21;99.18;99926.73;657526;1277;25072;-89
2022/08/14 17:17:48;;;;;;;20.40;17.40;;;;;;;25.14;99.96;99920.64;657296;1277;23535;-89
2022/08/14 17:33:12;;;;;;;18.20;11.60;;;;;;;25.03;100.00;99920.70;656373;1277;23661;-88
2022/08/14 17:48:30;;;;;;;26.60;17.90;;;;;;;24.97;100.00;99937.82;657388;1277;25343;-88
2022/08/14 18:03:57;;;;;;;18.90;11.90;;;;;;;24.50;100.00;99960.02;657860;1277;25450;-87
2022/08/14 18:19:10;;;;;;;21.00;12.80;;;;;;;24.67;100.00;99938.67;658544;1277;22545;-87
2022/08/14 18:34:17;;;;;;;17.60;11.60;;;;;;;24.34;100.00;99933.72;658048;1277;25492;-88
2022/08/14 18:49:59;;;;;;;22.10;13.90;;;;;;;24.30;100.00;99928.71;658256;1277;23954;-88
2022/08/14 19:05:05;;;;;;;18.10;11.80;;;;;;;24.11;100.00;99928.88;660061;1277;139806;-87
2022/08/14 19:20:16;;;;;;;21.10;12.30;;;;;;;24.11;100.00;99932.74;658055;1277;139648;-87
2022/08/14 19:35:26;;;;;;;28.40;16.50;;;;;;;23.91;100.00;99945.55;656982;1277;139616;-87
2022/08/14 19:51:00;;;;;;;;;;;;;;;23.73;100.00;99948.48;656676;1277;140089;-87
2022/08/14 20:06:07;;;;;;;54.10;24.80;;;;;;;23.63;100.00;99939.84;656751;1277;126325;-88
2022/08/14 20:21:15;;;;;;;36.60;20.30;;;;;;;23.49;100.00;99926.75;657186;1277;139285;-88
2022/08/14 20:36:26;;;;;;;27.10;16.40;;;;;;;23.32;100.00;99925.89;657071;1277;140097;-87
2022/08/14 20:51:59;;;;;;;30.00;16.20;;;;;;;23.26;100.00;99934.09;655778;1277;139441;-86
2022/08/14 21:07:13;;;;;;;30.30;18.00;;;;;;;23.12;100.00;99931.13;655904;1277;141012;-87
2022/08/14 21:22:36;;;;;;;25.50;15.80;;;;;;;23.03;100.00;99919.80;656127;1278;139212;-86
2022/08/14 21:37:43;;;;;;;29.30;16.00;;;;;;;22.92;100.00;99924.02;655902;1277;1402517;-86
2022/08/14 21:52:49;;;;;;;19.60;13.60;;;;;;;22.66;100.00;99919.48;656908;1279;140148;-87
2022/08/14 22:08:05;;;;;;;21.60;14.40;;;;;;;22.47;100.00;99910.70;656472;1277;139475;-87
2022/08/14 22:23:11;;;;;;;21.90;13.10;;;;;;;22.41;100.00;99899.87;663001;1277;140598;-86
2022/08/14 22:38:15;;;;;;;20.10;14.60;;;;;;;22.36;100.00;99889.46;657478;1277;139309;-85
2022/08/14 22:53:38;;;;;;;24.40;15.10;;;;;;;22.19;100.00;99883.09;656510;1278;140356;-85
2022/08/14 23:08:44;;;;;;;25.20;16.20;;;;;;;22.13;100.00;99879.88;656047;1277;140586;-86
2022/08/14 23:24:04;;;;;;;23.80;15.60;;;;;;;22.02;100.00;99868.98;656143;1277;139664;-85
2022/08/14 23:39:07;;;;;;;27.20;16.30;;;;;;;21.98;100.00;99877.39;656111;1280;139359;-87
2022/08/14 23:54:21;;;;;;;21.10;15.50;;;;;;;21.88;100.00;99881.84;656140;1277;141224;-85
